Time;durP1;ratioP1;P1;durP2;ratioP2;P2;SDS_P1;SDS_P2;PMS_P1;PMS_P2;Temp;Humidity;BMP_temperature;BMP_pressure;BME280_temperature;BME280_humidity;BME280_pressure;Samples;Min_cycle;Max_cycle;Signal;HPM_P1;HPM_P2
2022/01/05 00:00:53;;;;;;;;;;;;;;;1.97;98.00;100148.59;4990633;28;19944;-76
2022/01/05 00:03:18;;;;;;;;;;;;;;;1.97;97.92;100143.53;4988432;28;20562;-75
2022/01/05 00:05:43;;;;;;;;;;;;;;;1.97;97.13;100141.00;4989066;28;19992;-76
2022/01/05 00:08:09;;;;;;;;;;;;;;;2.05;97.41;100143.91;4989822;28;19976;-76
2022/01/05 00:10:34;;;;;;;;;;;;;;;1.99;97.22;100144.47;4991869;28;20016;-76
2022/01/05 00:12:59;;;;;;;;;;;;;;;1.95;96.89;100145.13;4987850;28;20280;-76
2022/01/05 00:15:25;;;;;;;;;;;;;;;1.91;97.13;100155.03;4987863;28;19984;-76
2022/01/05 00:17:50;;;;;;;;;;;;;;;1.92;97.52;100147.50;4998247;28;20617;-76
2022/01/05 00:20:15;;;;;;;;;;;;;;;1.82;96.90;100145.28;4969950;28;19929;-75
2022/01/05 00:22:40;;;;;;;;;;;;;;;1.76;97.14;100148.41;4990274;28;20329;-75
2022/01/05 00:25:06;;;;;;;;;;;;;;;1.73;96.93;100155.81;4970982;28;19932;-75
2022/01/05 00:27:31;;;;;;;;;;;;;;;1.69;96.89;100148.84;4990141;28;19926;-76
2022/01/05 00:29:58;;;;;;;;;;;;;;;1.70;97.02;100144.66;4990619;28;20010;-76
2022/01/05 00:32:23;;;;;;;;;;;;;;;1.60;96.00;100138.25;4989845;28;19937;-76
2022/01/05 00:34:48;;;;;;;;;;;;;;;1.63;96.29;100153.59;4988257;28;19926;-76
2022/01/05 00:37:13;;;;;;;;;;;;;;;1.59;96.20;100159.31;4986774;28;19953;-75
2022/01/05 00:39:39;;;;;;;;;;;;;;;1.59;96.15;100160.19;4989286;28;19925;-76
2022/01/05 00:42:04;;;;;;;;;;;;;;;1.57;95.78;100153.28;4990455;28;19930;-75
2022/01/05 00:44:30;;;;;;;;;;;;;;;1.52;96.19;100164.88;4989833;28;19953;-76
2022/01/05 00:46:55;;;;;;;;;;;;;;;1.45;96.34;100161.09;4991328;28;20377;-76
2022/01/05 00:49:21;;;;;;;;;;;;;;;1.47;95.99;100169.69;4987650;28;19984;-76
2022/01/05 00:51:46;;;;;;;;;;;;;;;1.41;96.14;100168.47;4991152;28;20009;-76
2022/01/05 00:54:11;;;;;;;;;;;;;;;1.34;96.24;100170.69;4985749;28;19948;-76
2022/01/05 00:56:37;;;;;;;;;;;;;;;1.43;96.09;100171.97;4987626;28;19961;-75
2022/01/05 00:59:02;;;;;;;;;;;;;;;1.32;95.96;100181.50;4988092;28;21565;-76
2022/01/05 01:01:27;;;;;;;;;;;;;;;1.28;96.13;100174.56;4989318;28;20412;-76
2022/01/05 01:03:53;;;;;;;;;;;;;;;1.24;96.35;100170.09;4991506;28;19984;-77
2022/01/05 01:06:18;;;;;;;;;;;;;;;1.21;96.08;100175.84;4988383;28;19922;-77
2022/01/05 01:08:44;;;;;;;;;;;;;;;1.19;96.46;100185.03;4989264;28;19960;-76
2022/01/05 01:11:09;;;;;;;;;;;;;;;1.18;96.14;100182.44;4988852;28;20041;-76
2022/01/05 01:13:34;;;;;;;;;;;;;;;1.14;96.15;100185.56;4992520;28;19929;-76
2022/01/05 01:15:59;;;;;;;;;;;;;;;1.12;95.96;100188.03;4989156;28;19930;-75
2022/01/05 01:18:25;;;;;;;;;;;;;;;1.12;95.98;100187.16;4986244;28;19933;-75
2022/01/05 01:20:50;;;;;;;;;;;;;;;1.11;95.90;100191.34;4973807;28;20841;-75
2022/01/05 01:23:19;;;;;;;;;;;;;;;1.13;95.58;100193.97;5001702;28;20025;-75
2022/01/05 01:25:45;;;;;;;;;;;;;;;1.09;95.46;100200.50;4989755;28;19957;-75
2022/01/05 01:28:10;;;;;;;;;;;;;;;1.05;95.54;100202.03;4989971;28;19971;-75
2022/01/05 01:30:35;;;;;;;;;;;;;;;1.03;95.89;100205.25;4988692;28;19918;-76
2022/01/05 01:33:00;;;;;;;;;;;;;;;1.03;95.69;100200.19;4987694;28;19929;-76
2022/01/05 01:35:26;;;;;;;;;;;;;;;0.98;95.59;100199.06;4986527;28;20377;-75
2022/01/05 01:37:51;;;;;;;;;;;;;;;0.98;95.77;100199.94;4988472;28;19922;-76
2022/01/05 01:40:17;;;;;;;;;;;;;;;0.96;95.78;100198.97;4987844;28;20385;-76
2022/01/05 01:42:42;;;;;;;;;;;;;;;0.95;95.80;100196.34;4987864;28;19922;-76
2022/01/05 01:45:08;;;;;;;;;;;;;;;0.88;95.75;100197.69;4986198;28;19984;-75
2022/01/05 01:47:33;;;;;;;;;;;;;;;0.85;95.93;100202.59;4987518;28;19930;-76
2022/01/05 01:49:58;;;;;;;;;;;;;;;0.82;96.24;100206.59;4971653;28;21091;-76
2022/01/05 01:52:23;;;;;;;;;;;;;;;0.83;96.27;100208.31;4990162;28;19922;-76
2022/01/05 01:54:49;;;;;;;;;;;;;;;0.82;96.17;100217.59;4973575;28;20026;-76
2022/01/05 01:57:15;;;;;;;;;;;;;;;0.80;96.28;100209.03;4988936;28;19926;-76
2022/01/05 01:59:40;;;;;;;;;;;;;;;0.78;96.11;100208.94;4988646;28;19940;-76
2022/01/05 02:02:07;;;;;;;;;;;;;;;0.79;96.13;100213.22;4972358;28;19957;-76
2022/01/05 02:04:34;;;;;;;;;;;;;;;0.83;96.18;100210.88;4984587;28;19926;-76
2022/01/05 02:06:59;;;;;;;;;;;;;;;0.77;96.50;100212.25;4972275;28;19922;-76
2022/01/05 02:09:24;;;;;;;;;;;;;;;0.83;96.14;100204.13;4991315;28;19987;-76
2022/01/05 02:11:50;;;;;;;;;;;;;;;0.73;96.02;100202.75;4993714;28;20423;-76
2022/01/05 02:14:15;;;;;;;;;;;;;;;0.67;96.08;100201.56;4991431;28;19937;-76
2022/01/05 02:16:43;;;;;;;;;;;;;;;0.66;96.09;100204.84;4993118;28;20040;-77
2022/01/05 02:19:09;;;;;;;;;;;;;;;0.62;96.07;100197.88;4976125;28;19930;-76
2022/01/05 02:21:36;;;;;;;;;;;;;;;0.64;96.01;100199.69;4991141;28;20304;-76
2022/01/05 02:24:02;;;;;;;;;;;;;;;0.61;95.89;100208.75;4992648;28;19969;-76
2022/01/05 02:26:28;;;;;;;;;;;;;;;0.62;95.69;100213.94;4991850;28;20414;-77
2022/01/05 02:28:53;;;;;;;;;;;;;;;0.56;95.75;100206.00;4993495;28;19926;-76
2022/01/05 02:31:18;;;;;;;;;;;;;;;0.49;95.92;100207.31;4992606;28;19934;-76
2022/01/05 02:33:44;;;;;;;;;;;;;;;0.42;96.10;100211.91;4992394;28;19969;-76
2022/01/05 02:36:12;;;;;;;;;;;;;;;0.43;96.25;100212.00;4992784;28;20316;-76
2022/01/05 02:38:38;;;;;;;;;;;;;;;0.41;96.54;100218.63;4978591;28;20004;-76
2022/01/05 02:41:08;;;;;;;;;;;;;;;0.37;96.25;100216.72;4992497;28;20013;-76
2022/01/05 02:43:34;;;;;;;;;;;;;;;0.41;96.26;100222.81;4985917;28;20907;-76
2022/01/05 02:45:59;;;;;;;;;;;;;;;0.37;96.14;100223.44;4990040;28;20407;-77
2022/01/05 02:48:24;;;;;;;;;;;;;;;0.35;96.21;100220.78;4990571;28;19968;-77
2022/01/05 02:50:49;;;;;;;;;;;;;;;0.34;96.27;100224.09;4990971;28;19922;-76
2022/01/05 02:53:15;;;;;;;;;;;;;;;0.31;96.30;100226.47;4991177;28;20012;-76
2022/01/05 02:55:40;;;;;;;;;;;;;;;0.28;96.17;100227.94;4992367;28;19929;-77
2022/01/05 02:58:05;;;;;;;;;;;;;;;0.27;96.24;100232.13;4990107;28;19934;-77
2022/01/05 03:00:31;;;;;;;;;;;;;;;0.16;96.55;100234.00;4991797;28;19968;-76
2022/01/05 03:02:56;;;;;;;;;;;;;;;0.16;96.39;100240.72;4997410;28;19921;-76
2022/01/05 03:05:22;;;;;;;;;;;;;;;0.19;96.07;100243.44;4990550;28;19925;-77
2022/01/05 03:07:47;;;;;;;;;;;;;;;0.19;96.52;100240.94;4990737;28;20031;-77
2022/01/05 03:10:13;;;;;;;;;;;;;;;0.14;96.24;100243.16;4993549;28;19930;-77
2022/01/05 03:12:40;;;;;;;;;;;;;;;0.15;96.51;100249.09;4969682;28;19922;-77
2022/01/05 03:15:05;;;;;;;;;;;;;;;0.14;96.22;100255.81;4998737;28;19924;-77
2022/01/05 03:17:32;;;;;;;;;;;;;;;0.16;95.97;100259.28;4991299;28;19922;-76
2022/01/05 03:19:57;;;;;;;;;;;;;;;0.24;96.11;100257.22;4992718;28;19965;-77
2022/01/05 03:22:22;;;;;;;;;;;;;;;0.31;95.29;100263.53;4991370;28;20351;-76
2022/01/05 03:24:48;;;;;;;;;;;;;;;0.36;95.02;100257.06;4992598;28;20349;-76
2022/01/05 03:27:13;;;;;;;;;;;;;;;0.31;94.42;100261.88;4990949;28;19972;-75
2022/01/05 03:29:39;;;;;;;;;;;;;;;0.28;94.39;100271.78;4993675;28;19980;-77
2022/01/05 03:32:04;;;;;;;;;;;;;;;0.31;94.40;100269.47;4978531;28;19929;-76
2022/01/05 03:34:31;;;;;;;;;;;;;;;0.37;94.57;100267.28;4993544;28;19925;-77
2022/01/05 03:36:56;;;;;;;;;;;;;;;0.37;93.66;100271.47;4990576;28;19948;-76
2022/01/05 03:39:22;;;;;;;;;;;;;;;0.35;94.14;100278.94;4973652;28;20347;-76
2022/01/05 03:41:48;;;;;;;;;;;;;;;0.40;93.06;100276.69;4992439;28;19926;-76
2022/01/05 03:44:14;;;;;;;;;;;;;;;0.49;93.62;100278.13;4988515;28;19930;-76
2022/01/05 03:46:39;;;;;;;;;;;;;;;0.53;93.16;100280.03;4992721;28;19996;-77
2022/01/05 03:49:06;;;;;;;;;;;;;;;0.57;93.05;100275.16;4991791;28;20335;-77
2022/01/05 03:51:31;;;;;;;;;;;;;;;0.62;93.56;100276.31;4973564;28;19922;-78
2022/01/05 03:53:56;;;;;;;;;;;;;;;0.63;93.28;100280.59;4975658;28;20445;-77
2022/01/05 03:56:23;;;;;;;;;;;;;;;0.53;92.60;100274.97;4977528;28;19963;-77
2022/01/05 03:58:49;;;;;;;;;;;;;;;0.50;93.45;100269.75;4971679;28;20282;-78
2022/01/05 04:01:14;;;;;;;;;;;;;;;0.42;93.23;100278.53;4972733;28;19929;-77
2022/01/05 04:03:39;;;;;;;;;;;;;;;0.42;93.75;100277.66;4990602;28;19928;-77
2022/01/05 04:06:06;;;;;;;;;;;;;;;0.37;94.16;100289.19;4992939;28;19925;-78
2022/01/05 04:08:31;;;;;;;;;;;;;;;0.26;94.32;100286.00;4990897;28;19922;-77
2022/01/05 04:10:56;;;;;;;;;;;;;;;0.22;94.42;100289.13;4991929;28;19924;-76
2022/01/05 04:13:23;;;;;;;;;;;;;;;0.20;94.29;100291.56;4974986;28;19921;-77
2022/01/05 04:15:48;;;;;;;;;;;;;;;0.18;94.76;100298.19;4988863;28;20566;-76
2022/01/05 04:18:14;;;;;;;;;;;;;;;0.21;94.93;100293.31;4990632;28;20367;-76
2022/01/05 04:20:39;;;;;;;;;;;;;;;0.12;94.97;100296.94;4991383;28;20012;-76
2022/01/05 04:23:05;;;;;;;;;;;;;;;0.09;95.47;100294.22;4973448;28;20357;-77
2022/01/05 04:25:31;;;;;;;;;;;;;;;0.06;95.90;100288.97;4991982;28;20384;-75
2022/01/05 04:27:56;;;;;;;;;;;;;;;0.01;95.79;100296.31;4988528;28;19928;-77
2022/01/05 04:30:22;;;;;;;;;;;;;;;-0.03;96.14;100297.75;4992190;28;19921;-77
2022/01/05 04:32:47;;;;;;;;;;;;;;;-0.10;96.27;100300.69;4990909;28;19917;-77
2022/01/05 04:35:14;;;;;;;;;;;;;;;-0.14;97.03;100306.34;4989178;28;19929;-76
2022/01/05 04:37:40;;;;;;;;;;;;;;;-0.13;97.23;100309.72;4992426;28;20371;-76
2022/01/05 04:40:05;;;;;;;;;;;;;;;-0.02;96.81;100316.31;4991211;28;20304;-77
2022/01/05 04:42:30;;;;;;;;;;;;;;;0.05;96.43;100315.03;4989097;28;19921;-76
2022/01/05 04:44:56;;;;;;;;;;;;;;;0.13;96.52;100316.41;4989928;28;19922;-77
2022/01/05 04:47:21;;;;;;;;;;;;;;;0.16;96.55;100317.44;4993220;28;19929;-76
2022/01/05 04:49:47;;;;;;;;;;;;;;;0.27;96.58;100323.16;4991308;28;19922;-77
2022/01/05 04:52:12;;;;;;;;;;;;;;;0.40;96.28;100329.81;4990112;28;20376;-76
2022/01/05 04:54:37;;;;;;;;;;;;;;;0.50;96.12;100322.88;4992817;28;19941;-77
2022/01/05 04:57:03;;;;;;;;;;;;;;;0.60;95.88;100318.34;4972987;28;20036;-77
2022/01/05 04:59:28;;;;;;;;;;;;;;;0.68;95.41;100324.75;4990544;28;19961;-77
2022/01/05 05:01:53;;;;;;;;;;;;;;;0.78;94.65;100320.28;4994566;28;20007;-77
2022/01/05 05:04:19;;;;;;;;;;;;;;;0.90;94.55;100325.19;5000116;28;19929;-77
2022/01/05 05:06:44;;;;;;;;;;;;;;;0.86;94.78;100322.41;4992425;28;20458;-77
2022/01/05 05:09:09;;;;;;;;;;;;;;;0.98;94.06;100329.06;4970041;28;19922;-76
2022/01/05 05:11:35;;;;;;;;;;;;;;;0.95;94.44;100321.25;4990738;28;20140;-77
2022/01/05 05:14:01;;;;;;;;;;;;;;;0.96;94.56;100323.00;4972288;28;19926;-76
2022/01/05 05:16:26;;;;;;;;;;;;;;;0.99;94.58;100325.72;4971690;28;20104;-77
2022/01/05 05:18:53;;;;;;;;;;;;;;;1.05;94.88;100328.63;4990304;28;20368;-76
2022/01/05 05:21:19;;;;;;;;;;;;;;;1.06;94.36;100327.81;4989352;28;21437;-77
2022/01/05 05:23:44;;;;;;;;;;;;;;;1.07;94.34;100324.50;4986180;28;19926;-77
2022/01/05 05:26:09;;;;;;;;;;;;;;;1.08;94.76;100308.53;4992807;28;19945;-77
2022/01/05 05:28:34;;;;;;;;;;;;;;;1.08;94.76;100308.53;4989184;28;20174;-77
2022/01/05 05:31:00;;;;;;;;;;;;;;;1.08;94.66;100321.19;4989204;28;19976;-77
2022/01/05 05:33:25;;;;;;;;;;;;;;;1.06;94.80;100317.69;4989559;28;19930;-76
2022/01/05 05:35:50;;;;;;;;;;;;;;;1.03;95.10;100320.06;4970760;28;19921;-77
2022/01/05 05:38:16;;;;;;;;;;;;;;;1.04;95.19;100316.75;4971135;28;19989;-76
2022/01/05 05:40:42;;;;;;;;;;;;;;;1.09;94.88;100319.50;4973257;28;19980;-77
2022/01/05 05:43:07;;;;;;;;;;;;;;;1.16;95.07;100318.22;4989948;28;19926;-76
2022/01/05 05:45:32;;;;;;;;;;;;;;;1.22;94.77;100321.13;4991387;28;20516;-76
2022/01/05 05:47:57;;;;;;;;;;;;;;;1.26;94.75;100326.41;4978667;28;20016;-77
2022/01/05 05:50:23;;;;;;;;;;;;;;;1.38;94.53;100333.81;4993931;28;20012;-77
2022/01/05 05:52:48;;;;;;;;;;;;;;;1.40;94.46;100336.47;4988483;28;19926;-77
2022/01/05 05:55:13;;;;;;;;;;;;;;;1.47;94.62;100336.03;4994238;28;19917;-76
2022/01/05 05:57:39;;;;;;;;;;;;;;;1.45;94.38;100343.50;4994973;28;20811;-77
2022/01/05 06:00:05;;;;;;;;;;;;;;;1.47;94.38;100339.41;4991669;28;19964;-77
2022/01/05 06:02:30;;;;;;;;;;;;;;;1.55;94.56;100342.38;4991008;28;20391;-77
2022/01/05 06:04:55;;;;;;;;;;;;;;;1.64;94.14;100330.22;4997572;28;19933;-77
2022/01/05 06:07:21;;;;;;;;;;;;;;;1.67;94.33;100327.84;4993399;28;20569;-76
2022/01/05 06:09:46;;;;;;;;;;;;;;;1.61;94.19;100322.44;4993651;28;19929;-76
2022/01/05 06:12:11;;;;;;;;;;;;;;;1.62;94.06;100324.19;4990598;28;19917;-77
2022/01/05 06:14:37;;;;;;;;;;;;;;;1.52;94.38;100332.09;4992551;28;19922;-77
2022/01/05 06:17:02;;;;;;;;;;;;;;;1.43;95.14;100340.03;4993944;28;19929;-77
2022/01/05 06:19:27;;;;;;;;;;;;;;;1.39;95.43;100344.81;4975923;28;19922;-77
2022/01/05 06:21:52;;;;;;;;;;;;;;;1.40;95.50;100337.34;4991404;28;20327;-75
2022/01/05 06:24:18;;;;;;;;;;;;;;;1.42;95.64;100342.50;4976372;28;19926;-75
2022/01/05 06:26:44;;;;;;;;;;;;;;;1.44;95.64;100341.78;4990545;28;19929;-78
2022/01/05 06:29:12;;;;;;;;;;;;;;;1.54;95.74;100340.63;4991882;28;19928;-77
2022/01/05 06:31:37;;;;;;;;;;;;;;;1.64;95.21;100347.97;4995716;28;20560;-76
2022/01/05 06:34:03;;;;;;;;;;;;;;;1.67;95.08;100352.31;4975396;28;19929;-76
2022/01/05 06:36:28;;;;;;;;;;;;;;;1.69;95.57;100358.34;4994197;28;20017;-76
2022/01/05 06:38:53;;;;;;;;;;;;;;;1.76;95.28;100355.34;4992270;28;21332;-76
2022/01/05 06:41:18;;;;;;;;;;;;;;;1.76;95.31;100357.88;4992056;28;19939;-78
2022/01/05 06:43:44;;;;;;;;;;;;;;;1.77;95.00;100358.00;4992879;28;19929;-77
2022/01/05 06:46:09;;;;;;;;;;;;;;;1.76;95.31;100366.38;4991607;28;19953;-77
2022/01/05 06:48:34;;;;;;;;;;;;;;;1.79;95.34;100361.47;4990545;28;19922;-77
2022/01/05 06:50:59;;;;;;;;;;;;;;;1.82;95.38;100363.28;4973426;28;20607;-76
2022/01/05 06:53:25;;;;;;;;;;;;;;;1.84;95.52;100366.78;4992694;28;19922;-77
2022/01/05 06:55:50;;;;;;;;;;;;;;;1.88;95.61;100377.19;4989509;28;19976;-76
2022/01/05 06:58:15;;;;;;;;;;;;;;;1.95;95.24;100393.63;4990072;28;20016;-77
2022/01/05 07:00:41;;;;;;;;;;;;;;;1.97;95.28;100391.16;4992981;28;19926;-75
2022/01/05 07:03:06;;;;;;;;;;;;;;;2.01;95.27;100393.94;4989789;28;20581;-75
2022/01/05 07:05:31;;;;;;;;;;;;;;;2.04;95.30;100399.16;4991313;28;19926;-76
2022/01/05 07:07:57;;;;;;;;;;;;;;;2.12;94.89;100395.41;4988413;28;19936;-75
2022/01/05 07:10:22;;;;;;;;;;;;;;;2.18;94.97;100394.84;4991607;28;20363;-76
2022/01/05 07:12:47;;;;;;;;;;;;;;;2.30;94.54;100392.97;4974813;28;20284;-76
2022/01/05 07:15:13;;;;;;;;;;;;;;;2.38;94.04;100398.47;4990767;28;19924;-76
2022/01/05 07:17:38;;;;;;;;;;;;;;;2.43;93.42;100391.97;4990558;28;20565;-76
2022/01/05 07:20:04;;;;;;;;;;;;;;;2.46;93.29;100401.41;4990038;28;20301;-76
2022/01/05 07:22:30;;;;;;;;;;;;;;;2.54;92.51;100398.47;4991426;28;19971;-76
2022/01/05 07:24:56;;;;;;;;;;;;;;;2.56;92.15;100412.13;4982927;28;20340;-76
2022/01/05 07:27:21;;;;;;;;;;;;;;;2.69;91.54;100419.59;4988287;28;19937;-75
2022/01/05 07:29:46;;;;;;;;;;;;;;;2.74;91.75;100413.88;4989946;28;19922;-77
2022/01/05 07:32:12;;;;;;;;;;;;;;;2.80;91.61;100414.19;4990276;28;19926;-76
2022/01/05 07:34:37;;;;;;;;;;;;;;;2.80;90.76;100417.59;4990285;28;19922;-76
2022/01/05 07:37:02;;;;;;;;;;;;;;;2.89;90.55;100419.72;4992123;28;19922;-77
2022/01/05 07:39:28;;;;;;;;;;;;;;;2.90;90.00;100419.81;4986470;28;20405;-76
2022/01/05 07:41:55;;;;;;;;;;;;;;;2.90;90.79;100422.34;4991002;28;19937;-76
2022/01/05 07:44:20;;;;;;;;;;;;;;;2.92;90.90;100425.84;4989702;28;20029;-75
2022/01/05 07:46:45;;;;;;;;;;;;;;;2.98;91.01;100425.31;4989104;28;20016;-74
2022/01/05 07:49:10;;;;;;;;;;;;;;;2.97;89.96;100426.06;4987680;28;19929;-75
2022/01/05 07:51:36;;;;;;;;;;;;;;;2.98;90.73;100438.00;4988824;28;19984;-76
2022/01/05 07:54:01;;;;;;;;;;;;;;;3.11;89.88;100442.03;4989908;28;20265;-75
2022/01/05 07:56:27;;;;;;;;;;;;;;;3.18;90.22;100444.09;4989735;28;19925;-74
2022/01/05 07:58:52;;;;;;;;;;;;;;;3.14;89.50;100459.97;4990695;28;19929;-75
2022/01/05 08:01:18;;;;;;;;;;;;;;;3.26;89.68;100458.03;4990696;28;19929;-76
2022/01/05 08:03:46;;;;;;;;;;;;;;;3.23;89.04;100463.84;4985207;28;19926;-75
2022/01/05 08:06:12;;;;;;;;;;;;;;;3.22;89.71;100467.19;4986221;28;20284;-75
2022/01/05 08:08:37;;;;;;;;;;;;;;;3.20;89.10;100462.81;4991040;28;19925;-75
2022/01/05 08:11:02;;;;;;;;;;;;;;;3.27;89.42;100466.53;4988294;28;19945;-76
2022/01/05 08:13:27;;;;;;;;;;;;;;;3.23;89.46;100470.59;4989977;28;19941;-76
2022/01/05 08:15:53;;;;;;;;;;;;;;;3.28;88.98;100463.22;4989660;28;19918;-76
2022/01/05 08:18:19;;;;;;;;;;;;;;;3.26;89.91;100458.03;4989907;28;19921;-75
2022/01/05 08:20:45;;;;;;;;;;;;;;;3.33;89.46;100449.06;4988545;28;19918;-76
2022/01/05 08:23:14;;;;;;;;;;;;;;;3.35;89.27;100457.66;4983157;28;19936;-76
2022/01/05 08:25:39;;;;;;;;;;;;;;;3.25;89.01;100448.69;4987633;28;19940;-77
2022/01/05 08:28:04;;;;;;;;;;;;;;;3.25;89.15;100452.91;4988538;28;19922;-76
2022/01/05 08:30:33;;;;;;;;;;;;;;;3.17;88.77;100466.09;4987060;28;20031;-75
2022/01/05 08:33:00;;;;;;;;;;;;;;;3.25;89.10;100465.59;4988047;28;19924;-77
2022/01/05 08:35:26;;;;;;;;;;;;;;;3.16;89.24;100461.81;4989398;28;19931;-76
2022/01/05 08:37:52;;;;;;;;;;;;;;;3.20;89.03;100462.81;4988583;28;20417;-77
2022/01/05 08:40:18;;;;;;;;;;;;;;;3.20;89.02;100465.34;4990267;28;20024;-76
2022/01/05 08:42:44;;;;;;;;;;;;;;;3.24;89.24;100469.81;4983412;28;19918;-76
2022/01/05 08:45:10;;;;;;;;;;;;;;;3.23;88.89;100470.59;4987317;28;20392;-76
2022/01/05 08:47:36;;;;;;;;;;;;;;;3.34;88.55;100468.63;4989070;28;19929;-76
2022/01/05 08:50:01;;;;;;;;;;;;;;;3.43;88.05;100472.47;4988791;28;19937;-76
2022/01/05 08:52:27;;;;;;;;;;;;;;;3.60;88.01;100468.25;4988170;28;19925;-76
2022/01/05 08:54:54;;;;;;;;;;;;;;;3.79;87.18;100461.50;4988757;28;19933;-76
2022/01/05 08:57:20;;;;;;;;;;;;;;;4.06;86.74;100480.63;4988739;28;20024;-76
2022/01/05 08:59:47;;;;;;;;;;;;;;;4.38;85.83;100482.19;4988912;28;19957;-76
2022/01/05 09:02:15;;;;;;;;;;;;;;;4.71;84.62;100480.28;4986062;28;20434;-76
2022/01/05 09:04:40;;;;;;;;;;;;;;;4.81;82.51;100499.41;4986806;28;19973;-77
2022/01/05 09:07:06;;;;;;;;;;;;;;;4.76;84.00;100496.66;4991902;28;20032;-76
2022/01/05 09:09:31;;;;;;;;;;;;;;;4.58;84.08;100503.47;4988842;28;20382;-76
2022/01/05 09:11:56;;;;;;;;;;;;;;;4.38;84.60;100499.13;4988572;28;20369;-76
2022/01/05 09:14:21;;;;;;;;;;;;;;;4.19;86.50;100499.94;4989553;28;19922;-76
2022/01/05 09:16:47;;;;;;;;;;;;;;;4.03;87.68;100496.63;4985458;28;19926;-76
2022/01/05 09:19:12;;;;;;;;;;;;;;;3.90;88.45;100501.94;4992538;28;19965;-76
2022/01/05 09:21:37;;;;;;;;;;;;;;;3.83;89.96;100504.13;4991924;28;19925;-77
2022/01/05 09:24:03;;;;;;;;;;;;;;;3.72;90.65;100511.19;4991242;28;20409;-77
2022/01/05 09:26:28;;;;;;;;;;;;;;;3.70;90.76;100525.50;4992206;28;20373;-77
2022/01/05 09:28:54;;;;;;;;;;;;;;;3.61;93.10;100518.28;4989443;28;20408;-77
2022/01/05 09:31:19;;;;;;;;;;;;;;;3.65;91.82;100527.81;4993570;28;19922;-77
2022/01/05 09:33:44;;;;;;;;;;;;;;;3.67;91.60;100533.84;4991966;28;19920;-77
2022/01/05 09:36:20;;;;;;;;;;;;;;;3.63;91.57;100533.59;4992589;28;19929;-77
2022/01/05 09:44:01;;;;;;;;;;;;;;;3.68;91.96;100532.19;4992181;28;19940;-77
2022/01/05 09:46:31;;;;;;;;;;;;;;;3.65;91.63;100540.53;4989491;28;21528;-76
2022/01/05 09:49:10;;;;;;;;;;;;;;;3.69;91.65;100534.78;4994060;28;19925;-76
2022/01/05 09:51:36;;;;;;;;;;;;;;;3.61;92.21;100536.09;4988610;28;19989;-76
2022/01/05 09:54:02;;;;;;;;;;;;;;;3.61;92.79;100533.53;4992146;28;19956;-76
2022/01/05 09:56:31;;;;;;;;;;;;;;;3.61;92.63;100531.00;4991086;28;20503;-77
2022/01/05 09:59:00;;;;;;;;;;;;;;;3.74;91.64;100540.97;4992763;28;19921;-76
2022/01/05 10:01:26;;;;;;;;;;;;;;;3.72;92.64;100551.88;4992354;28;19925;-77
2022/01/05 10:03:51;;;;;;;;;;;;;;;3.81;92.36;100547.25;4990415;28;19926;-76
2022/01/05 10:06:16;;;;;;;;;;;;;;;3.81;92.52;100551.47;4993150;28;19926;-77
2022/01/05 10:08:41;;;;;;;;;;;;;;;3.79;93.22;100547.97;4989509;28;19929;-77
2022/01/05 10:11:08;;;;;;;;;;;;;;;3.89;92.51;100556.16;4989575;28;19926;-76
2022/01/05 10:13:34;;;;;;;;;;;;;;;3.94;93.12;100554.72;4988828;28;19921;-77
2022/01/05 10:15:59;;;;;;;;;;;;;;;4.14;92.62;100578.59;4993023;28;20404;-76
2022/01/05 10:18:24;;;;;;;;;;;;;;;4.48;91.23;100572.56;4991201;28;19929;-76
2022/01/05 10:21:01;;;;;;;;;;;;;;;4.81;89.66;100570.75;4992224;28;19989;-76
2022/01/05 10:23:36;;;;;;;;;;;;;;;4.99;86.67;100571.59;4990799;28;19984;-75
2022/01/05 10:26:21;;;;;;;;;;;;;;;4.94;87.55;100574.72;4992516;28;19953;-77
2022/01/05 10:28:47;;;;;;;;;;;;;;;4.83;87.41;100577.66;4991301;28;19922;-76
2022/01/05 10:31:13;;;;;;;;;;;;;;;4.79;87.75;100578.31;4993185;28;19992;-71
2022/01/05 10:33:38;;;;;;;;;;;;;;;4.75;87.26;100568.78;4991147;28;19957;-76
2022/01/05 10:36:04;;;;;;;;;;;;;;;4.77;87.19;100573.94;4991149;28;19960;-71
2022/01/05 10:38:29;;;;;;;;;;;;;;;4.80;88.26;100574.97;4990673;28;19929;-72
2022/01/05 10:40:54;;;;;;;;;;;;;;;5.04;86.55;100579.44;4991841;28;19921;-71
2022/01/05 10:43:20;;;;;;;;;;;;;;;5.15;86.29;100588.44;4991712;28;20422;-69
2022/01/05 10:45:46;;;;;;;;;;;;;;;5.45;85.30;100582.97;4989576;28;19934;-69
2022/01/05 10:48:16;;;;;;;;;;;;;;;5.76;85.33;100580.06;4991655;28;19925;-71
2022/01/05 10:50:41;;;;;;;;;;;;;;;6.50;81.58;100589.13;4991923;28;19925;-70
2022/01/05 10:53:10;;;;;;;;;;;;;;;6.78;81.35;100607.25;4990718;28;19926;-70
2022/01/05 10:55:40;;;;;;;;;;;;;;;6.55;77.94;100595.25;4990519;28;20005;-71
2022/01/05 10:58:15;;;;;;;;;;;;;;;6.23;80.28;100604.19;4992446;28;19921;-69
2022/01/05 11:00:40;;;;;;;;;;;;;;;6.00;81.60;100595.56;4988382;28;19955;-70
2022/01/05 11:03:21;;;;;;;;;;;;;;;5.77;82.78;100617.53;4990982;28;19925;-71
2022/01/05 11:06:01;;;;;;;;;;;;;;;5.71;83.35;100628.34;4989316;28;19937;-71
2022/01/05 11:08:30;;;;;;;;;;;;;;;5.66;83.03;100624.72;4991471;28;19926;-71
2022/01/05 11:10:55;;;;;;;;;;;;;;;5.78;83.46;100624.38;4989374;28;19925;-70
2022/01/05 11:13:21;;;;;;;;;;;;;;;5.93;83.65;100619.09;4990964;28;19922;-72
2022/01/05 11:15:46;;;;;;;;;;;;;;;6.06;82.83;100618.78;4988789;28;19930;-70
2022/01/05 11:18:16;;;;;;;;;;;;;;;6.13;83.82;100625.94;4991950;28;19960;-69
2022/01/05 11:20:51;;;;;;;;;;;;;;;6.12;82.73;100621.59;4991975;28;19959;-69
2022/01/05 11:23:20;;;;;;;;;;;;;;;6.18;82.65;100632.06;4990166;28;19925;-71
2022/01/05 11:25:46;;;;;;;;;;;;;;;6.34;82.74;100618.28;4988982;28;19987;-70
2022/01/05 11:28:13;;;;;;;;;;;;;;;6.77;82.24;100631.09;4991866;28;19932;-72
2022/01/05 11:30:39;;;;;;;;;;;;;;;7.11;78.62;100622.19;4989773;28;19918;-73
2022/01/05 11:33:04;;;;;;;;;;;;;;;7.50;79.11;100639.00;4989031;28;20044;-69
2022/01/05 11:35:30;;;;;;;;;;;;;;;8.27;74.83;100639.16;4989961;28;20024;-70
2022/01/05 11:37:55;;;;;;;;;;;;;;;8.50;75.21;100645.94;4991540;28;19926;-72
2022/01/05 11:40:21;;;;;;;;;;;;;;;8.25;74.00;100638.19;4987495;28;19933;-72
2022/01/05 11:42:48;;;;;;;;;;;;;;;7.94;74.80;100637.16;4987849;28;19929;-73
2022/01/05 11:45:27;;;;;;;;;;;;;;;7.82;77.16;100630.72;4987099;28;19929;-71
2022/01/05 11:48:09;;;;;;;;;;;;;;;7.48;76.45;100632.97;4992736;28;20348;-71
2022/01/05 11:50:41;;;;;;;;;;;;;;;7.09;77.45;100642.56;4988362;28;20524;-75
2022/01/05 11:53:07;;;;;;;;;;;;;;;6.98;79.37;100644.72;4987785;28;19918;-69
2022/01/05 11:55:53;;;;;;;;;;;;;;;6.65;79.52;100636.56;4990357;28;19930;-72
2022/01/05 11:58:19;;;;;;;;;;;;;;;6.48;80.73;100639.25;4983692;28;19966;-72
2022/01/05 12:00:46;;;;;;;;;;;;;;;6.59;81.28;100651.66;4981780;28;19930;-70
2022/01/05 12:03:12;;;;;;;;;;;;;;;6.63;81.00;100643.31;4988352;28;20281;-72
2022/01/05 12:05:56;;;;;;;;;;;;;;;6.59;80.59;100656.78;4988548;28;20439;-73
2022/01/05 12:08:41;;;;;;;;;;;;;;;6.76;80.53;100670.22;4987150;28;19921;-69
2022/01/05 12:11:26;;;;;;;;;;;;;;;6.99;79.99;100677.13;4988677;28;19925;-72
2022/01/05 12:13:51;;;;;;;;;;;;;;;6.80;80.42;100686.56;4991010;28;19953;-71
2022/01/05 12:16:16;;;;;;;;;;;;;;;6.75;81.47;100683.81;4990199;28;19925;-70
2022/01/05 12:18:43;;;;;;;;;;;;;;;6.79;80.88;100695.91;4991670;28;19922;-72
2022/01/05 12:21:28;;;;;;;;;;;;;;;6.67;82.32;100680.06;4991083;28;19921;-71
2022/01/05 12:23:54;;;;;;;;;;;;;;;6.63;81.56;100691.00;4989315;28;19918;-71
2022/01/05 12:26:20;;;;;;;;;;;;;;;6.61;81.73;100698.59;4988677;28;19922;-71
2022/01/05 12:28:53;;;;;;;;;;;;;;;6.59;82.35;100702.75;4991693;28;20349;-74
2022/01/05 12:31:18;;;;;;;;;;;;;;;6.44;82.47;100708.13;4985859;28;20051;-74
2022/01/05 12:33:45;;;;;;;;;;;;;;;6.35;84.20;100702.59;4990417;28;20004;-74
2022/01/05 12:36:11;;;;;;;;;;;;;;;6.24;84.74;100697.84;4986309;28;19918;-73
2022/01/05 12:38:38;;;;;;;;;;;;;;;6.00;86.00;100713.84;4992912;28;19980;-73
2022/01/05 12:41:21;;;;;;;;;;;;;;;5.89;87.62;100702.28;4989351;28;19918;-72
2022/01/05 12:43:47;;;;;;;;;;;;;;;5.67;88.46;100695.34;4990322;28;20388;-71
2022/01/05 12:46:13;;;;;;;;;;;;;;;5.61;88.38;100705.25;4990379;28;19953;-71